Latest Weather Observations for Hunters Hill

IDV60801

Issued at 4:05 am EST Saturday 30 August 2014 (issued every 30 minutes, with the page automatically refreshed every 10 minutes)

About weather observations | Map of weather stations | Latest weather observations for VIC | Other Formats
Station Details ID: 082139 Name: HUNTERS HILL Lat: -36.21 Lon: 147.54 Height: 981.0 m
Data from the previous 72 hours. | See also: Recent months at Hunters Hill
Date/Time
EST
Temp
°C
App
Temp
°C
Dew
Point
Rel
Hum
%
Delta-T
°C
Wind Press
QNH
hPa
Press
MSL
hPa
Rain
since 9 am
mm
Dir
 
Spd
km/h
Gust
km/h
Spd
kts
Gust
kts
30/04:00am 6.1 3.2 1.4 72 2.0 SSE 6 9 3 5 - - 0.0
30/03:30am 6.6 3.7 1.3 69 2.3 SSE 6 9 3 5 - - 0.0
30/03:00am 6.4 3.8 1.1 69 2.2 SSE 4 7 2 4 - - 0.0
30/02:30am 6.9 4.3 1.2 67 2.4 SSE 4 6 2 3 - - 0.0
30/02:00am 7.2 4.3 1.3 66 2.5 SSE 6 7 3 4 - - 0.0
30/01:30am 7.1 4.2 1.2 66 2.5 S 6 9 3 5 - - 0.0
30/01:00am 7.3 4.3 0.7 63 2.8 S 6 9 3 5 - - 0.0
30/12:30am 7.7 4.6 0.4 60 3.1 S 6 7 3 4 - - 0.0
30/12:00am 7.9 4.8 -0.1 57 3.3 S 6 7 3 4 - - 0.0
 
Date/Time
EST
Temp
°C
App
Temp
°C
Dew
Point
Rel
Hum
%
Delta-T
°C
Wind Press
QNH
hPa
Press
MSL
hPa
Rain
since 9 am
mm
Dir
 
Spd
km/h
Gust
km/h
Spd
kts
Gust
kts
29/11:30pm 8.2 5.3 -0.8 53 3.7 S 4 6 2 3 - - 0.0
29/11:00pm 8.6 6.2 -0.4 53 3.8 S 2 4 1 2 - - 0.0
29/10:30pm 8.4 5.9 1.3 61 3.1 S 4 6 2 3 - - 0.0
29/10:00pm 8.3 5.5 1.9 64 2.8 S 6 7 3 4 - - 0.0
29/09:30pm 8.6 6.3 2.8 67 2.6 S 4 6 2 3 - - 0.0
29/09:00pm 8.8 6.4 2.4 64 2.9 S 4 6 2 3 - - 0.0
29/08:30pm 9.3 6.8 1.7 59 3.4 S 4 6 2 3 - - 0.0
29/08:00pm 9.8 7.4 1.9 58 3.5 S 4 9 2 5 - - 0.0
29/07:30pm 9.9 7.1 2.3 59 3.4 S 6 9 3 5 - - 0.0
29/07:00pm 8.9 7.1 3.3 68 2.6 WSW 2 6 1 3 - - 0.0
29/06:30pm 9.3 7.3 2.4 62 3.1 WSW 2 4 1 2 - - 0.0
29/06:00pm 9.7 7.8 2.6 61 3.2 WSW 2 4 1 2 - - 0.0
29/05:30pm 11.0 8.8 3.5 60 3.5 WSW 4 7 2 4 - - 0.0
29/05:00pm 12.7 10.5 3.6 54 4.3 WSW 4 6 2 3 - - 0.0
29/04:30pm 13.6 11.0 3.1 49 5.0 WSW 6 13 3 7 - - 0.0
29/04:00pm 14.3 11.7 3.2 47 5.3 WSW 6 11 3 6 - - 0.0
29/03:30pm 14.4 11.7 2.9 46 5.4 W 6 11 3 6 - - 0.0
29/03:00pm 14.3 11.9 5.4 55 4.4 WNW 7 13 4 7 - - 0.0
29/02:30pm 14.2 11.9 5.6 56 4.3 WNW 7 13 4 7 - - 0.0
29/02:00pm 14.3 11.8 4.6 52 4.8 W 7 11 4 6 - - 0.0
29/01:30pm 15.0 12.6 4.4 49 5.2 NNW 6 13 3 7 - - 0.0
29/01:00pm 14.0 11.6 4.3 52 4.7 NW 6 9 3 5 - - 0.0
29/12:30pm 14.6 12.7 5.1 53 4.7 NW 4 9 2 5 - - 0.0
29/12:00pm 14.3 12.3 2.2 44 5.6 NW 2 6 1 3 - - 0.0
29/11:30am 13.7 11.7 4.3 53 4.6 NW 4 7 2 4 - - 0.0
29/11:00am 12.8 10.4 2.1 48 4.9 WSW 4 9 2 5 - - 0.0
29/10:30am 12.6 10.2 0.0 42 5.5 WSW 2 6 1 3 - - 0.0
29/10:00am 11.7 8.8 -1.1 41 5.4 WSW 4 6 2 3 - - 0.0
29/09:30am 10.9 8.2 0.0 47 4.7 WSW 4 7 2 4 - - 0.0
29/09:00am 9.8 6.8 -1.6 45 4.7 W 4 7 2 4 - - 0.0
29/08:30am 9.3 6.4 -1.4 47 4.4 W 4 7 2 4 - - 0.0
29/08:00am 8.7 6.0 0.4 56 3.5 W 4 7 2 4 - - 0.0
29/07:30am 7.4 5.8 2.5 71 2.2 CALM 0 2 0 1 - - 0.0
29/07:00am 7.4 5.4 2.5 71 2.2 W 2 4 1 2 - - 0.0
29/06:30am 6.8 5.3 2.9 76 1.7 CALM 0 0 0 0 - - 0.0
29/06:00am 7.0 5.1 2.9 75 1.8 W 2 4 1 2 - - 0.0
29/05:30am 6.9 5.1 3.2 77 1.7 W 2 4 1 2 - - 0.0
29/05:00am 7.2 5.0 3.4 77 1.7 W 4 4 2 2 - - 0.0
29/04:30am 7.2 5.1 3.8 79 1.5 W 4 4 2 2 - - 0.0
29/04:00am 7.1 5.8 4.1 81 1.4 CALM 0 0 0 0 - - 0.0
29/03:30am 7.4 6.0 3.6 77 1.7 CALM 0 0 0 0 - - 0.0
29/03:00am 7.4 6.0 3.6 77 1.7 CALM 0 0 0 0 - - 0.0
29/02:30am 6.8 5.2 4.5 85 1.1 W 2 2 1 1 - - 0.0
29/02:00am 6.7 4.7 4.4 85 1.1 W 4 4 2 2 - - 0.0
29/01:30am 7.1 5.6 4.8 85 1.1 W 2 4 1 2 - - 0.0
29/01:00am 7.5 5.5 4.5 81 1.4 W 4 6 2 3 - - 0.0
29/12:30am 7.5 6.0 3.0 73 2.0 CALM 0 0 0 0 - - 0.0
29/12:00am 7.5 6.0 2.8 72 2.1 CALM 0 0 0 0 - - 0.0
 
Date/Time
EST
Temp
°C
App
Temp
°C
Dew
Point
Rel
Hum
%
Delta-T
°C
Wind Press
QNH
hPa
Press
MSL
hPa
Rain
since 9 am
mm
Dir
 
Spd
km/h
Gust
km/h
Spd
kts
Gust
kts
28/11:30pm 7.8 6.2 2.5 69 2.4 CALM 0 0 0 0 - - 0.0
28/11:00pm 7.8 6.1 1.9 66 2.6 CALM 0 4 0 2 - - 0.0
28/10:30pm 7.2 5.1 1.5 67 2.5 W 2 4 1 2 - - 0.0
28/10:00pm 8.0 5.7 0.5 59 3.2 W 2 4 1 2 - - 0.0
28/09:30pm 8.2 5.6 1.1 61 3.1 W 4 6 2 3 - - 0.0
28/09:00pm 8.2 5.2 0.7 59 3.2 W 6 9 3 5 - - 0.0
28/08:30pm 8.1 5.3 -0.1 56 3.4 W 4 7 2 4 - - 0.0
28/08:00pm 8.4 5.8 1.1 60 3.2 W 4 7 2 4 - - 0.0
28/07:30pm 8.4 5.5 1.6 62 3.0 W 6 7 3 4 - - 0.0
28/07:00pm 8.1 5.3 1.9 65 2.7 W 6 11 3 6 - - 0.0
28/06:30pm 8.2 5.4 2.9 69 2.4 W 7 11 4 6 - - 0.0
28/06:00pm 8.3 5.5 3.0 69 2.4 W 7 13 4 7 - - 0.0
28/05:30pm 9.4 6.7 2.5 62 3.1 W 6 11 3 6 - - 0.0
28/05:00pm 11.2 8.4 2.2 54 4.1 W 6 11 3 6 - - 0.0
28/04:30pm 12.6 9.9 0.4 43 5.4 ESE 4 9 2 5 - - 0.0
28/04:00pm 12.5 9.6 -4.1 31 6.6 ESE 2 4 1 2 - - 0.0
28/03:30pm 13.7 10.8 -4.5 28 7.3 ESE 2 6 1 3 - - 0.0
28/03:00pm 14.1 11.3 -3.2 30 7.2 ESE 2 6 1 3 - - 0.0
28/02:30pm 13.2 10.2 -4.9 28 7.2 ESE 2 7 1 4 - - 0.0
28/02:00pm 13.1 9.9 -3.2 32 6.7 ESE 4 7 2 4 - - 0.0
28/01:30pm 13.2 10.4 -3.1 32 6.7 ESE 2 7 1 4 - - 0.0
28/01:00pm 12.7 9.8 -4.0 31 6.7 ESE 2 6 1 3 - - 0.0
28/12:30pm 12.9 9.7 -3.4 32 6.6 ESE 4 6 2 3 - - 0.0
28/12:00pm 11.6 8.1 -2.9 36 5.9 ESE 6 9 3 5 - - 0.0
28/11:30am 11.6 9.3 0.1 45 5.0 S 2 9 1 5 - - 0.0
28/11:00am 10.1 7.3 -0.4 48 4.5 SSE 4 7 2 4 - - 0.0
28/10:30am 10.2 7.9 0.5 51 4.2 SSE 2 7 1 4 - - 0.0
28/10:00am 9.1 6.2 -0.8 50 4.1 SSE 4 7 2 4 - - 0.0
28/09:30am 8.5 5.8 0.0 55 3.6 SSE 4 6 2 3 - - 0.0
28/09:00am 7.5 5.2 0.5 61 3.0 SSE 2 6 1 3 - - 0.0
28/08:30am 6.3 3.6 0.4 66 2.5 SSE 4 6 2 3 - - 0.0
28/08:00am 5.6 3.0 1.2 73 1.9 SSE 4 6 2 3 - - 0.0
28/07:30am 4.4 1.8 1.1 79 1.4 SSE 4 7 2 4 - - 0.0
28/07:00am 3.9 0.9 0.6 79 1.3 SSE 6 7 3 4 - - 0.0
28/06:30am 3.8 0.8 0.7 80 1.3 SSE 6 6 3 3 - - 0.0
28/06:00am 4.0 1.3 0.3 77 1.5 SSE 4 6 2 3 - - 0.0
28/05:30am 4.2 1.6 0.7 78 1.4 SSE 4 6 2 3 - - 0.0
28/05:00am 4.6 2.0 0.7 76 1.6 SSE 4 6 2 3 - - 0.0
28/04:30am 5.1 2.8 0.3 71 2.0 SSE 2 4 1 2 - - 0.0
28/04:00am 5.5 2.8 0.1 68 2.2 SSE 4 6 2 3 - - 0.0
28/03:30am 5.9 3.9 0.0 66 2.4 CALM 0 0 0 0 - - 0.0
28/03:00am 5.4 3.5 0.4 70 2.1 CALM 0 0 0 0 - - 0.0
28/02:30am 5.4 3.5 0.4 70 2.1 CALM 0 0 0 0 - - 0.0
28/02:00am 5.5 3.2 0.3 69 2.1 SSE 2 2 1 1 - - 0.0
28/01:30am 5.6 3.3 0.2 68 2.2 SSE 2 4 1 2 - - 0.0
28/01:00am 5.8 3.1 0.4 68 2.2 SSE 4 4 2 2 - - 0.0
28/12:30am 5.7 3.0 0.3 68 2.2 SSE 4 4 2 2 - - 0.0
28/12:00am 6.1 3.8 0.2 66 2.4 SSE 2 4 1 2 - - 0.0
 
Date/Time
EST
Temp
°C
App
Temp
°C
Dew
Point
Rel
Hum
%
Delta-T
°C
Wind Press
QNH
hPa
Press
MSL
hPa
Rain
since 9 am
mm
Dir
 
Spd
km/h
Gust
km/h
Spd
kts
Gust
kts
27/11:30pm 6.4 4.1 0.5 66 2.5 SSE 2 4 1 2 - - 0.0
27/11:00pm 7.0 5.1 0.7 64 2.7 CALM 0 4 0 2 - - 0.0
27/10:30pm 7.7 5.8 0.4 60 3.1 CALM 0 0 0 0 - - 0.0
27/10:00pm 7.5 5.5 0.0 59 3.1 CALM 0 0 0 0 - - 0.0
27/09:30pm 8.1 6.1 0.1 57 3.4 CALM 0 0 0 0 - - 0.0
27/09:00pm 8.0 6.2 1.0 61 3.0 CALM 0 0 0 0 - - 0.0
27/08:30pm 8.6 6.6 0.1 55 3.6 CALM 0 0 0 0 - - 0.0
27/08:00pm 8.3 6.5 1.2 61 3.1 CALM 0 0 0 0 - - 0.0
27/07:30pm 8.1 6.3 1.0 61 3.1 CALM 0 0 0 0 - - 0.0
27/07:00pm 8.1 6.2 0.3 58 3.3 CALM 0 0 0 0 - - 0.0
27/06:30pm 8.4 6.4 -0.1 55 3.6 CALM 0 0 0 0 - - 0.0
27/06:00pm 8.9 6.9 -0.1 53 3.8 CALM 0 0 0 0 - - 0.0
27/05:30pm 10.4 8.4 -0.1 48 4.5 CALM 0 0 0 0 - - 0.0
27/05:00pm 11.3 9.2 -0.5 44 5.0 CALM 0 0 0 0 - - 0.0
27/04:30pm 12.6 10.6 -0.3 41 5.6 CALM 0 2 0 1 - - 0.0
27/04:00pm 13.4 11.1 0.1 40 5.9 SSE 2 4 1 2 - - 0.0
27/03:30pm 14.0 11.2 -0.4 37 6.3 SSE 4 7 2 4 - - 0.0
27/03:00pm 13.7 10.7 -1.5 35 6.5 SSE 4 9 2 5 - - 0.0
27/02:30pm 14.5 11.6 -0.8 35 6.7 SE 4 6 2 3 - - 0.0
27/02:00pm 13.5 10.4 -2.8 32 6.8 SSE 4 7 2 4 - - 0.0
27/01:30pm 14.0 10.8 -3.3 30 7.1 SSE 4 7 2 4 - - 0.0
27/01:00pm 13.9 11.2 0.2 39 6.1 SSE 4 7 2 4 - - 0.0
27/12:30pm 13.0 10.6 2.0 47 5.0 SSE 4 6 2 3 - - 0.0
27/12:00pm 12.7 10.7 4.4 57 4.0 SSE 4 9 2 5 - - 0.0
27/11:30am 12.0 10.3 3.8 57 3.9 SSE 2 7 1 4 - - 0.0
27/11:00am 11.9 9.8 3.9 58 3.8 SSE 4 7 2 4 - - 0.0
27/10:30am 10.5 8.3 3.3 61 3.3 SSE 4 7 2 4 - - 0.0
27/10:00am 10.6 8.9 3.9 63 3.1 SSE 2 4 1 2 - - 0.0
27/09:30am 9.4 7.5 2.7 63 3.0 SSE 2 6 1 3 - - 0.0
27/09:00am 9.3 7.5 3.3 66 2.7 SSE 2 4 1 2 - - 0.0
27/08:30am 8.1 6.1 2.4 67 2.5 SSE 2 6 1 3 - - 0.0
27/08:00am 7.2 5.3 3.1 75 1.8 SSE 2 4 1 2 - - 0.0
27/07:30am 5.9 4.0 2.7 80 1.4 SSE 2 6 1 3 - - 0.0
27/07:00am 5.4 3.0 2.1 79 1.4 SSE 4 6 2 3 - - 0.0
27/06:30am 5.3 2.9 2.1 80 1.4 SSE 4 6 2 3 - - 0.0
27/06:00am 5.4 3.0 2.2 80 1.4 SSE 4 6 2 3 - - 0.0
27/05:30am 5.5 3.2 2.5 81 1.3 SSE 4 6 2 3 - - 0.0
27/05:00am 5.7 3.4 2.7 81 1.3 SSE 4 6 2 3 - - 0.0
27/04:30am 5.9 3.6 2.9 81 1.3 SSE 4 6 2 3 - - 0.0

Other Formats:

Comma delimited format used in spreadsheet applications
http://www.bom.gov.au/fwo/IDV60801/IDV60801.94878.axf

JavaScript Object Notation format (JSON) in row-major order
http://www.bom.gov.au/fwo/IDV60801/IDV60801.94878.json